createdAt,value
2018-12-17T00:02:18.213Z,100319.09
2018-12-17T00:04:52.610Z,100319.09
2018-12-17T00:07:28.467Z,100322.89
2018-12-17T00:10:00.187Z,100327.84
2018-12-17T00:12:34.697Z,100325.64
2018-12-17T00:15:09.011Z,100324.83
2018-12-17T00:17:39.395Z,100324.42
2018-12-17T00:20:11.667Z,100323.70
2018-12-17T00:22:43.515Z,100319.94
2018-12-17T00:25:13.815Z,100324.49
2018-12-17T00:27:44.629Z,100321.44
2018-12-17T00:30:17.117Z,100320.50
2018-12-17T00:32:47.311Z,100319.61
2018-12-17T00:35:34.192Z,100324.67
2018-12-17T00:38:04.432Z,100321.03
2018-12-17T00:40:36.822Z,100321.99
2018-12-17T00:43:09.077Z,100320.42
2018-12-17T00:45:41.246Z,100319.34
2018-12-17T00:48:13.367Z,100319.53
2018-12-17T00:53:37.055Z,100327.95
2018-12-17T00:56:09.005Z,100328.25
2018-12-17T00:58:39.180Z,100330.19
2018-12-17T01:01:11.728Z,100330.93
2018-12-17T01:03:44.057Z,100337.78
2018-12-17T01:06:16.422Z,100335.29
2018-12-17T01:08:48.237Z,100348.90
2018-12-17T01:11:20.647Z,100346.78
2018-12-17T01:16:21.958Z,100353.95
2018-12-17T01:18:52.282Z,100352.64
2018-12-17T01:21:25.018Z,100353.24
2018-12-17T01:23:56.780Z,100361.75
2018-12-17T01:26:29.455Z,100364.62
2018-12-17T01:29:01.953Z,100367.88
2018-12-17T01:31:34.394Z,100372.76
2018-12-17T01:34:06.484Z,100372.54
2018-12-17T01:36:38.540Z,100369.67
2018-12-17T01:39:11.019Z,100371.95
2018-12-17T01:41:43.419Z,100374.11
2018-12-17T01:44:15.598Z,100364.97
2018-12-17T01:46:49.983Z,100373.06
2018-12-17T01:49:21.756Z,100377.50
2018-12-17T01:51:53.882Z,100372.28
2018-12-17T01:59:29.709Z,100373.32
2018-12-17T02:02:02.128Z,100378.28
2018-12-17T02:04:34.220Z,100376.83
2018-12-17T02:07:06.271Z,100374.52
2018-12-17T02:09:38.313Z,100377.23
2018-12-17T02:12:08.311Z,100375.27
2018-12-17T02:14:40.479Z,100382.98
2018-12-17T02:17:12.709Z,100378.20
2018-12-17T02:19:44.964Z,100384.28
2018-12-17T02:22:15.037Z,100384.14
2018-12-17T02:24:47.333Z,100391.03
2018-12-17T02:27:19.276Z,100398.11
2018-12-17T02:29:49.509Z,100395.44
2018-12-17T02:32:23.943Z,100398.23
2018-12-17T02:34:55.706Z,100404.30
2018-12-17T02:37:27.656Z,100399.80
2018-12-17T02:39:57.993Z,100388.72
2018-12-17T02:42:30.260Z,100399.34
2018-12-17T02:45:02.546Z,100402.33
2018-12-17T02:47:34.682Z,100408.93
2018-12-17T02:50:06.049Z,100405.12
2018-12-17T02:52:37.952Z,100406.58
2018-12-17T02:55:10.511Z,100408.81
2018-12-17T02:57:45.633Z,100409.19
2018-12-17T03:00:17.463Z,100411.91
2018-12-17T03:02:51.973Z,100410.45
2018-12-17T03:05:23.696Z,100416.23
2018-12-17T03:07:55.903Z,100411.25
2018-12-17T03:10:26.316Z,100415.71
2018-12-17T03:12:58.415Z,100416.07
2018-12-17T03:15:30.819Z,100415.59
2018-12-17T03:18:03.226Z,100418.99
2018-12-17T03:20:35.549Z,100423.50
2018-12-17T03:23:07.956Z,100429.23
2018-12-17T03:25:39.928Z,100417.82
2018-12-17T03:28:11.967Z,100422.83
2018-12-17T03:30:43.826Z,100424.73
2018-12-17T03:33:16.081Z,100422.66
2018-12-17T03:35:48.129Z,100415.07
2018-12-17T03:38:18.535Z,100426.11
2018-12-17T03:40:54.980Z,100418.84
2018-12-17T03:43:26.912Z,100425.01
2018-12-17T03:46:00.146Z,100420.90
2018-12-17T03:48:32.400Z,100429.78
2018-12-17T03:51:02.777Z,100427.49
2018-12-17T03:53:37.183Z,100431.19
2018-12-17T03:56:08.977Z,100442.22
2018-12-17T03:58:40.553Z,100439.67
2018-12-17T04:01:10.691Z,100451.95
2018-12-17T04:03:42.682Z,100455.67
2018-12-17T04:06:14.691Z,100460.23
2018-12-17T04:08:47.166Z,100460.67
2018-12-17T04:11:19.104Z,100471.04
2018-12-17T04:13:49.450Z,100476.80
2018-12-17T04:16:21.694Z,100477.33
2018-12-17T04:18:51.911Z,100473.84
2018-12-17T04:21:26.739Z,100476.39
2018-12-17T04:23:59.159Z,100479.80
2018-12-17T04:26:31.390Z,100484.36
2018-12-17T04:29:07.017Z,100484.22
2018-12-17T04:31:40.374Z,100483.78
2018-12-17T04:34:11.446Z,100485.41
2018-12-17T04:36:43.844Z,100493.23
2018-12-17T04:39:16.228Z,100494.41
2018-12-17T04:41:46.156Z,100491.97
2018-12-17T04:44:18.636Z,100492.58
2018-12-17T04:46:50.852Z,100490.88
2018-12-17T04:49:23.481Z,100500.65
2018-12-17T04:51:55.099Z,100496.02
2018-12-17T04:54:27.678Z,100489.76
2018-12-17T04:57:00.229Z,100499.09
2018-12-17T04:59:30.728Z,100501.25
2018-12-17T05:02:02.745Z,100503.72
2018-12-17T05:04:35.036Z,100508.48
2018-12-17T05:07:07.281Z,100507.95
2018-12-17T05:09:42.058Z,100510.95
2018-12-17T05:12:15.348Z,100512.63
2018-12-17T05:14:47.126Z,100528.70
2018-12-17T05:17:19.589Z,100529.08
2018-12-17T05:19:52.181Z,100538.63
2018-12-17T05:22:24.819Z,100543.33
2018-12-17T05:24:57.434Z,100549.45
2018-12-17T05:27:30.911Z,100556.76
2018-12-17T05:30:07.948Z,100558.99
2018-12-17T05:32:40.010Z,100564.22
2018-12-17T05:35:14.204Z,100566.69
2018-12-17T05:37:45.023Z,100567.34
2018-12-17T05:40:15.436Z,100570.99
2018-12-17T05:42:48.032Z,100568.38
2018-12-17T05:45:19.851Z,100567.45
2018-12-17T05:47:52.029Z,100569.31
2018-12-17T05:50:24.227Z,100568.25
2018-12-17T05:52:56.461Z,100567.59
2018-12-17T05:55:28.664Z,100570.72
2018-12-17T06:00:54.715Z,100570.80
2018-12-17T06:03:26.908Z,100574.12
2018-12-17T06:08:30.781Z,100585.86
2018-12-17T06:11:03.357Z,100591.88
2018-12-17T06:13:35.769Z,100594.34
2018-12-17T06:16:07.658Z,100598.22
2018-12-17T06:18:40.644Z,100605.91
2018-12-17T06:21:11.074Z,100602.71
2018-12-17T06:23:43.272Z,100603.09
2018-12-17T06:26:15.356Z,100606.63
2018-12-17T06:28:45.894Z,100608.45
2018-12-17T06:31:18.108Z,100603.02
2018-12-17T06:33:49.960Z,100616.29
2018-12-17T06:36:22.378Z,100614.86
2018-12-17T06:38:56.837Z,100615.00
2018-12-17T06:41:28.581Z,100620.02
2018-12-17T06:44:00.861Z,100626.09
2018-12-17T06:46:33.088Z,100628.36
2018-12-17T06:49:05.347Z,100635.81
2018-12-17T06:51:37.824Z,100637.19
2018-12-17T06:54:09.604Z,100640.42
2018-12-17T06:56:41.883Z,100649.55
2018-12-17T06:59:16.355Z,100648.30
2018-12-17T07:01:49.044Z,100656.05
2018-12-17T07:04:20.547Z,100653.45
2018-12-17T07:06:50.705Z,100657.64
2018-12-17T07:09:23.028Z,100662.21
2018-12-17T07:11:55.475Z,100665.99
2018-12-17T07:14:27.668Z,100669.70
2018-12-17T07:17:00.143Z,100672.98
2018-12-17T07:19:32.545Z,100677.62
2018-12-17T07:22:04.629Z,100682.26
2018-12-17T07:24:37.089Z,100687.09
2018-12-17T07:27:09.217Z,100686.90
2018-12-17T07:29:41.307Z,100686.29
2018-12-17T07:32:11.662Z,100676.95
2018-12-17T07:34:46.659Z,100686.50
2018-12-17T07:37:18.928Z,100695.44
2018-12-17T07:39:49.125Z,100698.28
2018-12-17T07:42:21.200Z,100703.37
2018-12-17T07:44:55.960Z,100706.39
2018-12-17T07:47:28.419Z,100700.11
2018-12-17T07:50:00.586Z,100709.14
2018-12-17T07:52:32.847Z,100711.78
2018-12-17T07:55:05.604Z,100717.22
2018-12-17T07:57:37.306Z,100718.14
2018-12-17T08:00:11.058Z,100714.50
2018-12-17T08:02:43.576Z,100713.54
2018-12-17T08:05:15.642Z,100717.11
2018-12-17T08:07:47.267Z,100720.89
2018-12-17T08:10:19.401Z,100723.92
2018-12-17T08:12:49.729Z,100732.47
2018-12-17T08:15:21.664Z,100728.98
2018-12-17T08:18:33.342Z,100723.00
2018-12-17T08:21:04.955Z,100722.16
2018-12-17T08:23:37.257Z,100718.64
2018-12-17T08:26:09.725Z,100714.83
2018-12-17T08:28:41.943Z,100714.83
2018-12-17T08:31:14.276Z,100716.08
2018-12-17T08:33:46.567Z,100711.73
2018-12-17T08:36:16.764Z,100714.28
2018-12-17T08:38:49.068Z,100715.83
2018-12-17T08:41:21.155Z,100730.70
2018-12-17T08:43:53.754Z,100736.03
2018-12-17T08:46:25.716Z,100742.23
2018-12-17T08:48:57.869Z,100740.97
2018-12-17T08:51:30.418Z,100738.34
2018-12-17T08:54:02.671Z,100744.48
2018-12-17T08:56:34.829Z,100752.52
2018-12-17T08:59:07.301Z,100760.41
2018-12-17T09:01:39.445Z,100759.61
2018-12-17T09:04:12.117Z,100760.02
2018-12-17T09:06:44.656Z,100758.50
2018-12-17T09:09:19.424Z,100768.47
2018-12-17T09:11:51.284Z,100769.00
2018-12-17T09:14:23.167Z,100769.06
2018-12-17T09:16:55.432Z,100762.73
2018-12-17T09:19:27.318Z,100764.65
2018-12-17T09:21:59.048Z,100765.94
2018-12-17T09:24:31.113Z,100768.15
2018-12-17T09:27:03.364Z,100775.39
2018-12-17T09:29:35.403Z,100777.73
2018-12-17T09:32:10.425Z,100780.09
2018-12-17T09:34:40.840Z,100791.88
2018-12-17T09:37:14.167Z,100788.89
2018-12-17T09:39:47.102Z,100776.11
2018-12-17T09:42:19.617Z,100774.34
2018-12-17T09:44:53.972Z,100774.83
2018-12-17T09:47:25.748Z,100776.70
2018-12-17T09:49:57.602Z,100773.91
2018-12-17T09:52:29.953Z,100773.38
2018-12-17T09:55:02.462Z,100771.03
2018-12-17T09:57:34.286Z,100773.85
2018-12-17T10:00:10.177Z,100780.95
2018-12-17T10:02:42.622Z,100771.60
2018-12-17T10:05:14.872Z,100778.05
2018-12-17T10:07:49.311Z,100775.02
2018-12-17T10:10:21.797Z,100768.17
2018-12-17T10:12:54.775Z,100766.66
2018-12-17T10:15:27.146Z,100765.01
2018-12-17T10:18:00.939Z,100760.52
2018-12-17T10:20:32.879Z,100755.61
2018-12-17T10:23:04.749Z,100764.70
2018-12-17T10:25:34.677Z,100759.30
2018-12-17T10:28:07.197Z,100762.56
2018-12-17T10:30:39.718Z,100761.62
2018-12-17T10:33:10.912Z,100762.92
2018-12-17T10:35:43.212Z,100761.57
2018-12-17T10:38:15.192Z,100770.06
2018-12-17T10:40:47.928Z,100767.62
2018-12-17T10:43:19.856Z,100757.09
2018-12-17T10:45:51.807Z,100763.85
2018-12-17T10:48:24.457Z,100765.70
2018-12-17T10:50:56.531Z,100772.19
2018-12-17T10:53:28.672Z,100771.09
2018-12-17T10:56:00.787Z,100773.75
2018-12-17T10:58:33.071Z,100775.89
2018-12-17T11:01:10.703Z,100781.48
2018-12-17T11:03:48.398Z,100786.00
2018-12-17T11:06:22.988Z,100778.11
2018-12-17T11:08:54.843Z,100774.25
2018-12-17T11:11:27.199Z,100774.91
2018-12-17T11:13:59.111Z,100781.27
2018-12-17T11:16:29.432Z,100780.81
2018-12-17T11:19:02.954Z,100777.62
2018-12-17T11:21:34.618Z,100779.58
2018-12-17T11:24:04.979Z,100777.90
2018-12-17T11:26:36.744Z,100775.77
2018-12-17T11:29:08.892Z,100769.03
2018-12-17T11:31:41.266Z,100774.08
2018-12-17T11:34:13.413Z,100769.55
2018-12-17T11:36:45.805Z,100775.87
2018-12-17T11:39:18.019Z,100768.84
2018-12-17T11:41:50.323Z,100767.08
2018-12-17T11:44:22.243Z,100767.84
2018-12-17T11:46:59.142Z,100765.73
2018-12-17T11:49:31.208Z,100764.97
2018-12-17T11:52:03.395Z,100768.91
2018-12-17T11:54:35.566Z,100762.56
2018-12-17T11:57:19.288Z,100762.92
2018-12-17T11:59:49.652Z,100766.00
2018-12-17T12:02:21.882Z,100762.44
2018-12-17T12:04:56.105Z,100758.53
2018-12-17T12:07:27.937Z,100768.09
2018-12-17T12:10:00.730Z,100762.38
2018-12-17T12:12:33.028Z,100766.64
2018-12-17T12:15:04.952Z,100771.58
2018-12-17T12:17:37.019Z,100766.37
2018-12-17T12:20:09.540Z,100755.36
2018-12-17T12:22:45.179Z,100783.15
2018-12-17T12:25:17.815Z,100774.38
2018-12-17T12:27:49.989Z,100780.63
2018-12-17T12:30:22.187Z,100775.70
2018-12-17T12:32:55.084Z,100780.09
2018-12-17T12:35:27.012Z,100776.51
2018-12-17T12:37:59.437Z,100777.45
2018-12-17T12:40:34.265Z,100778.33
2018-12-17T12:43:07.240Z,100774.42
2018-12-17T12:45:38.867Z,100777.81
2018-12-17T12:48:11.059Z,100777.86
2018-12-17T12:50:45.582Z,100779.13
2018-12-17T12:53:17.683Z,100772.13
2018-12-17T12:55:49.951Z,100779.22
2018-12-17T12:58:22.602Z,100780.86
2018-12-17T13:00:54.621Z,100778.84
2018-12-17T13:03:29.096Z,100777.98
2018-12-17T13:06:01.059Z,100777.56
2018-12-17T13:08:33.364Z,100781.11
2018-12-17T13:11:05.582Z,100769.89
2018-12-17T13:13:35.938Z,100768.41
2018-12-17T13:16:07.754Z,100774.83
2018-12-17T13:18:41.744Z,100774.27
2018-12-17T13:21:15.743Z,100776.03
2018-12-17T13:23:49.609Z,100778.55
2018-12-17T13:26:22.544Z,100782.33
2018-12-17T13:28:52.481Z,100780.00
2018-12-17T13:31:24.609Z,100781.44
2018-12-17T13:33:57.571Z,100784.29
2018-12-17T13:36:29.774Z,100780.69
2018-12-17T13:41:56.106Z,100787.19
2018-12-17T13:44:30.536Z,100798.52
2018-12-17T13:47:02.658Z,100797.75
2018-12-17T13:49:35.181Z,100793.23
2018-12-17T13:52:15.195Z,100799.45
2018-12-17T13:54:47.574Z,100807.00
2018-12-17T13:57:21.098Z,100805.38
2018-12-17T13:59:54.505Z,100805.38
2018-12-17T14:02:26.920Z,100812.31
2018-12-17T14:04:59.159Z,100807.89
2018-12-17T14:07:31.618Z,100805.98
2018-12-17T14:12:57.725Z,100823.87
2018-12-17T14:15:33.164Z,100823.62
2018-12-17T14:18:09.783Z,100823.98
2018-12-17T14:20:47.459Z,100826.35
2018-12-17T14:23:19.231Z,100826.31
2018-12-17T14:25:50.786Z,100824.95
2018-12-17T14:28:22.746Z,100833.42
2018-12-17T14:30:55.237Z,100831.78
2018-12-17T14:33:27.508Z,100837.36
2018-12-17T14:36:04.733Z,100832.27
2018-12-17T14:38:37.417Z,100834.08
2018-12-17T14:41:09.664Z,100839.33
2018-12-17T14:43:42.299Z,100839.78
2018-12-17T14:46:14.218Z,100842.91
2018-12-17T14:48:47.057Z,100848.38
2018-12-17T14:51:20.133Z,100845.61
2018-12-17T14:53:52.411Z,100849.97
2018-12-17T14:56:24.576Z,100856.01
2018-12-17T14:58:56.807Z,100853.55
2018-12-17T15:01:35.610Z,100858.16
2018-12-17T15:04:03.521Z,100866.39
2018-12-17T15:06:35.681Z,100863.59
2018-12-17T15:09:07.667Z,100868.21
2018-12-17T15:11:40.283Z,100870.97
2018-12-17T15:14:12.529Z,100876.20
2018-12-17T15:16:44.707Z,100876.46
2018-12-17T15:19:17.473Z,100879.23
2018-12-17T15:21:49.054Z,100880.61
2018-12-17T15:24:21.531Z,100880.70
2018-12-17T15:26:55.846Z,100879.50
2018-12-17T15:29:30.019Z,100891.02
2018-12-17T15:32:01.710Z,100888.58
2018-12-17T15:34:33.906Z,100895.97
2018-12-17T15:37:04.130Z,100899.31
2018-12-17T15:39:36.643Z,100906.81
2018-12-17T15:42:08.883Z,100896.18
2018-12-17T15:44:41.836Z,100903.03
2018-12-17T15:47:19.079Z,100903.41
2018-12-17T15:49:54.780Z,100904.82
2018-12-17T15:52:27.012Z,100904.93
2018-12-17T15:55:02.452Z,100906.19
2018-12-17T15:57:33.277Z,100910.08
2018-12-17T16:00:09.004Z,100906.65
2018-12-17T16:02:41.505Z,100907.80
2018-12-17T16:05:13.837Z,100912.89
2018-12-17T16:07:46.210Z,100914.20
2018-12-17T16:10:18.162Z,100917.94
2018-12-17T16:13:10.276Z,100917.86
2018-12-17T16:15:42.350Z,100924.01
2018-12-17T16:18:17.004Z,100930.72
2018-12-17T16:20:48.653Z,100936.44
2018-12-17T16:23:20.728Z,100942.57
2018-12-17T16:25:55.196Z,100944.36
2018-12-17T16:28:27.485Z,100953.11
2018-12-17T16:30:57.943Z,100959.61
2018-12-17T16:33:30.297Z,100950.27
2018-12-17T16:36:02.401Z,100962.50
2018-12-17T16:38:34.833Z,100953.67
2018-12-17T16:41:05.572Z,100960.86
2018-12-17T16:43:37.291Z,100965.55
2018-12-17T16:46:09.532Z,100971.23
2018-12-17T16:48:42.004Z,100978.67
2018-12-17T16:51:14.180Z,100969.29
2018-12-17T16:53:48.831Z,100980.70
2018-12-17T16:56:21.447Z,100970.91
2018-12-17T16:58:53.525Z,100977.88
2018-12-17T17:01:23.701Z,100982.56
2018-12-17T17:03:53.872Z,100981.33
2018-12-17T17:06:26.089Z,100985.02
2018-12-17T17:08:59.008Z,100988.25
2018-12-17T17:11:31.485Z,100991.27
2018-12-17T17:14:06.676Z,100993.53
2018-12-17T17:16:38.486Z,100998.34
2018-12-17T17:19:10.676Z,101001.02
2018-12-17T17:21:43.028Z,101010.33
2018-12-17T17:24:14.843Z,101010.88
2018-12-17T17:26:48.228Z,100997.98
2018-12-17T17:32:12.495Z,101009.00
2018-12-17T17:34:45.052Z,101015.48
2018-12-17T17:37:17.491Z,101013.88
2018-12-17T17:39:48.552Z,101021.07
2018-12-17T17:42:24.200Z,101018.86
2018-12-17T17:44:58.511Z,101020.58
2018-12-17T17:47:30.895Z,101023.20
2018-12-17T17:50:06.086Z,101024.18
2018-12-17T17:52:38.077Z,101024.25
2018-12-17T17:55:10.488Z,101023.44
2018-12-17T17:57:44.434Z,101024.93
2018-12-17T18:00:16.952Z,101028.45
2018-12-17T18:02:49.020Z,101028.38
2018-12-17T18:05:19.308Z,101024.30
2018-12-17T18:07:51.835Z,101030.66
2018-12-17T18:10:23.955Z,101031.22
2018-12-17T18:12:56.582Z,101044.67
2018-12-17T18:15:28.853Z,101046.23
2018-12-17T18:18:02.104Z,101056.20
2018-12-17T18:20:32.645Z,101056.09
2018-12-17T18:23:07.858Z,101059.35
2018-12-17T18:25:39.213Z,101066.92
2018-12-17T18:28:12.054Z,101069.69
2018-12-17T18:30:45.227Z,101073.09
2018-12-17T18:33:18.483Z,101076.73
2018-12-17T18:35:51.075Z,101078.27
2018-12-17T18:38:21.827Z,101082.69
2018-12-17T18:40:53.735Z,101087.23
2018-12-17T18:43:25.792Z,101091.88
2018-12-17T18:45:57.776Z,101094.76
2018-12-17T18:48:32.208Z,101095.84
2018-12-17T18:51:04.122Z,101097.57
2018-12-17T18:53:34.256Z,101102.52
2018-12-17T18:56:06.403Z,101094.64
2018-12-17T18:58:41.094Z,101103.60
2018-12-17T19:01:13.170Z,101101.20
2018-12-17T19:03:45.483Z,101105.47
2018-12-17T19:06:17.846Z,101108.36
2018-12-17T19:08:52.120Z,101109.08
2018-12-17T19:11:24.119Z,101114.80
2018-12-17T19:13:54.476Z,101110.16
2018-12-17T19:16:25.010Z,101118.55
2018-12-17T19:18:57.174Z,101118.85
2018-12-17T19:21:31.626Z,101121.92
2018-12-17T19:24:03.381Z,101118.96
2018-12-17T19:26:36.047Z,101129.05
2018-12-17T19:29:08.022Z,101130.50
2018-12-17T19:31:40.093Z,101129.42
2018-12-17T19:34:10.332Z,101129.30
2018-12-17T19:36:40.784Z,101130.23
2018-12-17T19:39:10.930Z,101136.23
2018-12-17T19:41:41.589Z,101131.58
2018-12-17T19:44:14.100Z,101143.52
2018-12-17T19:46:46.538Z,101147.27
2018-12-17T19:49:18.449Z,101151.13
2018-12-17T19:51:50.426Z,101150.19
2018-12-17T19:54:24.865Z,101151.39
2018-12-17T19:56:57.124Z,101150.01
2018-12-17T19:59:29.869Z,101150.53
2018-12-17T20:02:03.141Z,101149.14
2018-12-17T20:04:41.510Z,101148.21
2018-12-17T20:07:13.596Z,101159.23
2018-12-17T20:09:45.869Z,101167.62
2018-12-17T20:12:17.915Z,101164.72
2018-12-17T20:14:50.022Z,101165.20
2018-12-17T20:17:22.643Z,101163.86
2018-12-17T20:19:55.116Z,101164.84
2018-12-17T20:22:27.404Z,101174.28
2018-12-17T20:24:57.673Z,101167.45
2018-12-17T20:27:29.914Z,101170.08
2018-12-17T20:30:02.210Z,101174.06
2018-12-17T20:32:34.521Z,101171.14
2018-12-17T20:35:07.962Z,101172.16
2018-12-17T20:37:39.807Z,101170.46
2018-12-17T20:40:12.562Z,101173.61
2018-12-17T20:42:45.107Z,101172.59
2018-12-17T20:45:18.574Z,101169.97
2018-12-17T20:47:52.000Z,101170.16
2018-12-17T20:50:23.918Z,101177.31
2018-12-17T20:52:58.625Z,101179.14
2018-12-17T20:55:30.843Z,101184.94
2018-12-17T20:58:03.448Z,101184.53
2018-12-17T21:00:35.969Z,101188.21
2018-12-17T21:03:09.531Z,101192.91
2018-12-17T21:05:42.111Z,101195.00
2018-12-17T21:08:12.399Z,101198.22
2018-12-17T21:10:44.550Z,101198.70
2018-12-17T21:13:16.859Z,101195.67
2018-12-17T21:15:51.006Z,101196.78
2018-12-17T21:18:22.784Z,101192.69
2018-12-17T21:20:55.364Z,101186.65
2018-12-17T21:23:30.005Z,101188.08
2018-12-17T21:26:00.405Z,101188.02
2018-12-17T21:28:32.589Z,101202.92
2018-12-17T21:31:04.575Z,101193.47
2018-12-17T21:33:36.706Z,101199.23
2018-12-17T21:36:09.135Z,101196.81
2018-12-17T21:38:41.354Z,101198.92
2018-12-17T21:41:13.663Z,101201.54
2018-12-17T21:43:46.065Z,101209.06
2018-12-17T21:46:17.970Z,101206.06
2018-12-17T21:48:49.793Z,101203.54
2018-12-17T21:51:22.169Z,101208.02
2018-12-17T21:53:57.413Z,101211.89
2018-12-17T21:56:29.582Z,101212.72
2018-12-17T21:59:01.696Z,101218.38
2018-12-17T22:01:34.016Z,101227.92
2018-12-17T22:04:08.506Z,101226.23
2018-12-17T22:06:40.421Z,101228.34
2018-12-17T22:09:12.605Z,101233.30
2018-12-17T22:11:44.380Z,101237.03
2018-12-17T22:14:16.892Z,101238.69
2018-12-17T22:16:48.782Z,101239.14
2018-12-17T22:19:20.769Z,101241.52
2018-12-17T22:21:53.245Z,101244.07
2018-12-17T22:24:25.567Z,101243.41
2018-12-17T22:26:59.848Z,101241.58
2018-12-17T22:29:34.187Z,101249.72
2018-12-17T22:32:06.168Z,101247.92
2018-12-17T22:34:40.737Z,101244.61
2018-12-17T22:37:21.120Z,101238.30
2018-12-17T22:39:53.218Z,101236.19
2018-12-17T22:42:25.634Z,101247.09
2018-12-17T22:45:00.307Z,101244.85
2018-12-17T22:47:32.058Z,101246.17
2018-12-17T22:50:04.842Z,101243.99
2018-12-17T22:52:37.402Z,101247.62
2018-12-17T22:55:09.804Z,101249.38
2018-12-17T22:57:43.716Z,101247.20
2018-12-17T23:00:15.617Z,101241.86
2018-12-17T23:02:46.096Z,101238.83
2018-12-17T23:05:18.274Z,101249.31
2018-12-17T23:07:52.562Z,101243.48
2018-12-17T23:10:39.597Z,101240.52
2018-12-17T23:13:22.588Z,101242.76
2018-12-17T23:16:05.757Z,101248.25
2018-12-17T23:18:36.584Z,101250.35
2018-12-17T23:21:08.777Z,101252.14
2018-12-17T23:23:43.285Z,101255.52
2018-12-17T23:26:17.262Z,101255.45
2018-12-17T23:28:49.094Z,101257.77
2018-12-17T23:31:21.155Z,101245.17
2018-12-17T23:33:53.606Z,101238.69
2018-12-17T23:36:27.995Z,101247.21
2018-12-17T23:38:59.727Z,101245.38
2018-12-17T23:41:32.119Z,101235.55
2018-12-17T23:44:04.451Z,101234.77
2018-12-17T23:46:36.824Z,101234.50
2018-12-17T23:49:09.488Z,101236.19
2018-12-17T23:51:41.935Z,101235.95
2018-12-17T23:54:13.871Z,101232.91
2018-12-17T23:56:46.362Z,101241.03
2018-12-17T23:59:16.424Z,101242.22
